createdAt,value
2023-01-23T00:00:12.548Z,1023.04
2023-01-23T00:01:12.519Z,1022.98
2023-01-23T00:02:12.592Z,1022.95
2023-01-23T00:03:12.669Z,1022.98
2023-01-23T00:04:12.603Z,1022.96
2023-01-23T00:05:12.520Z,1023.05
2023-01-23T00:06:12.511Z,1023.1
2023-01-23T00:07:12.641Z,1023.02
2023-01-23T00:08:12.513Z,1022.97
2023-01-23T00:09:12.585Z,1022.97
2023-01-23T00:10:12.513Z,1023.03
2023-01-23T00:11:12.725Z,1023.1
2023-01-23T00:12:12.511Z,1023.1
2023-01-23T00:13:12.549Z,1023.11
2023-01-23T00:14:12.526Z,1023.1
2023-01-23T00:15:12.503Z,1023.11
2023-01-23T00:16:12.551Z,1023.1
2023-01-23T00:17:12.514Z,1023.14
2023-01-23T00:18:12.659Z,1023.09
2023-01-23T00:19:12.524Z,1023.09
2023-01-23T00:20:12.517Z,1023.09
2023-01-23T00:21:12.527Z,1023.08
2023-01-23T00:22:15.515Z,1023.07
2023-01-23T00:23:12.666Z,1023.09
2023-01-23T00:24:12.510Z,1023.07
2023-01-23T00:25:12.518Z,1023.04
2023-01-23T00:26:12.537Z,1023.02
2023-01-23T00:27:12.526Z,1023.02
2023-01-23T00:28:12.734Z,1023.04
2023-01-23T00:29:12.516Z,1022.96
2023-01-23T00:30:12.522Z,1022.96
2023-01-23T00:31:12.599Z,1023
2023-01-23T00:32:12.519Z,1023.06
2023-01-23T00:33:12.900Z,1023.04
2023-01-23T00:34:12.617Z,1023.06
2023-01-23T00:35:12.515Z,1023.02
2023-01-23T00:36:12.537Z,1022.97
2023-01-23T00:37:12.570Z,1022.99
2023-01-23T00:38:12.572Z,1022.93
2023-01-23T00:39:12.612Z,1022.91
2023-01-23T00:40:12.517Z,1022.95
2023-01-23T00:41:12.529Z,1022.93
2023-01-23T00:42:12.509Z,1022.92
2023-01-23T00:43:12.519Z,1022.85
2023-01-23T00:44:12.541Z,1022.88
2023-01-23T00:45:12.517Z,1022.88
2023-01-23T00:46:12.525Z,1022.87
2023-01-23T00:47:12.565Z,1022.95
2023-01-23T00:48:12.510Z,1022.92
2023-01-23T00:49:12.520Z,1022.9
2023-01-23T00:50:12.539Z,1022.89
2023-01-23T00:51:12.581Z,1022.88
2023-01-23T00:52:12.509Z,1022.86
2023-01-23T00:53:12.527Z,1022.88
2023-01-23T00:54:12.527Z,1022.88
2023-01-23T00:55:12.572Z,1022.91
2023-01-23T00:56:12.527Z,1022.94
2023-01-23T00:57:12.502Z,1022.95
2023-01-23T00:58:12.534Z,1022.96
2023-01-23T00:59:12.512Z,1022.96
2023-01-23T01:00:12.515Z,1022.99
2023-01-23T01:01:12.513Z,1023.04
2023-01-23T01:02:12.631Z,1023.04
2023-01-23T01:03:12.567Z,1023
2023-01-23T01:04:12.520Z,1023.03
2023-01-23T01:05:12.555Z,1023.03
2023-01-23T01:06:12.549Z,1023.04
2023-01-23T01:07:12.525Z,1023.04
2023-01-23T01:08:12.534Z,1022.99
2023-01-23T01:09:12.528Z,1023.05
2023-01-23T01:10:12.521Z,1023
2023-01-23T01:11:12.523Z,1023.02
2023-01-23T01:12:12.662Z,1023
2023-01-23T01:13:12.516Z,1023.01
2023-01-23T01:14:12.524Z,1023.01
2023-01-23T01:15:12.525Z,1023.04
2023-01-23T01:16:12.552Z,1023.07
2023-01-23T01:17:12.523Z,1023.07
2023-01-23T01:18:12.618Z,1023.07
2023-01-23T01:19:12.521Z,1023.07
2023-01-23T01:20:12.515Z,1023.07
2023-01-23T01:21:12.530Z,1023.13
2023-01-23T01:22:12.537Z,1023.09
2023-01-23T01:23:12.539Z,1023.09
2023-01-23T01:24:12.525Z,1023.14
2023-01-23T01:25:12.519Z,1023.16
2023-01-23T01:26:12.816Z,1023.2
2023-01-23T01:27:12.519Z,1023.2
2023-01-23T01:28:12.692Z,1023.22
2023-01-23T01:29:12.609Z,1023.25
2023-01-23T01:30:12.828Z,1023.3
2023-01-23T01:31:12.677Z,1023.3
2023-01-23T01:32:12.778Z,1023.32
2023-01-23T01:33:12.672Z,1023.33
2023-01-23T01:34:12.511Z,1023.32
2023-01-23T01:35:12.626Z,1023.34
2023-01-23T01:36:12.516Z,1023.32
2023-01-23T01:37:12.825Z,1023.34
2023-01-23T01:38:13.056Z,1023.36
2023-01-23T01:39:12.723Z,1023.33
2023-01-23T01:40:12.534Z,1023.35
2023-01-23T01:41:12.549Z,1023.32
2023-01-23T01:42:12.509Z,1023.31
2023-01-23T01:43:12.681Z,1023.34
2023-01-23T01:44:12.586Z,1023.37
2023-01-23T01:45:12.549Z,1023.35
2023-01-23T01:46:12.608Z,1023.39
2023-01-23T01:47:12.513Z,1023.39
2023-01-23T01:48:12.744Z,1023.37
2023-01-23T01:49:12.516Z,1023.39
2023-01-23T01:50:15.790Z,1023.38
2023-01-23T01:51:12.556Z,1023.41
2023-01-23T01:52:12.514Z,1023.45
2023-01-23T01:53:12.777Z,1023.42
2023-01-23T01:54:12.514Z,1023.45
2023-01-23T01:55:12.522Z,1023.45
2023-01-23T01:56:12.525Z,1023.45
2023-01-23T01:57:12.549Z,1023.42
2023-01-23T01:58:12.918Z,1023.43
2023-01-23T01:59:12.532Z,1023.41
2023-01-23T02:00:12.513Z,1023.38
2023-01-23T02:01:12.521Z,1023.35
2023-01-23T02:02:12.560Z,1023.41
2023-01-23T02:03:12.537Z,1023.41
2023-01-23T02:04:12.519Z,1023.42
2023-01-23T02:05:12.522Z,1023.49
2023-01-23T02:06:12.522Z,1023.45
2023-01-23T02:07:12.546Z,1023.46
2023-01-23T02:08:12.505Z,1023.48
2023-01-23T02:09:12.509Z,1023.49
2023-01-23T02:10:12.508Z,1023.48
2023-01-23T02:11:12.517Z,1023.47
2023-01-23T02:12:12.531Z,1023.47
2023-01-23T02:13:12.522Z,1023.42
2023-01-23T02:14:12.680Z,1023.47
2023-01-23T02:15:12.504Z,1023.47
2023-01-23T02:16:12.614Z,1023.48
2023-01-23T02:17:12.513Z,1023.45
2023-01-23T02:18:12.523Z,1023.41
2023-01-23T02:19:12.524Z,1023.42
2023-01-23T02:20:12.509Z,1023.47
2023-01-23T02:21:12.510Z,1023.5
2023-01-23T02:22:12.526Z,1023.55
2023-01-23T02:23:12.512Z,1023.53
2023-01-23T02:24:12.549Z,1023.56
2023-01-23T02:25:12.514Z,1023.56
2023-01-23T02:26:12.532Z,1023.55
2023-01-23T02:27:12.521Z,1023.59
2023-01-23T02:28:12.506Z,1023.61
2023-01-23T02:29:12.523Z,1023.64
2023-01-23T02:30:12.505Z,1023.61
2023-01-23T02:31:12.586Z,1023.59
2023-01-23T02:32:12.509Z,1023.63
2023-01-23T02:33:12.543Z,1023.66
2023-01-23T02:34:12.522Z,1023.65
2023-01-23T02:35:12.529Z,1023.67
2023-01-23T02:36:12.510Z,1023.68
2023-01-23T02:37:12.514Z,1023.69
2023-01-23T02:38:12.513Z,1023.73
2023-01-23T02:39:12.533Z,1023.77
2023-01-23T02:40:12.751Z,1023.77
2023-01-23T02:41:13.032Z,1023.8
2023-01-23T02:42:12.781Z,1023.8
2023-01-23T02:43:12.524Z,1023.77
2023-01-23T02:44:12.753Z,1023.79
2023-01-23T02:45:12.512Z,1023.75
2023-01-23T02:46:12.797Z,1023.75
2023-01-23T02:47:12.657Z,1023.71
2023-01-23T02:48:12.877Z,1023.7
2023-01-23T02:49:12.630Z,1023.75
2023-01-23T02:50:12.514Z,1023.73
2023-01-23T02:51:12.739Z,1023.69
2023-01-23T02:52:12.981Z,1023.68
2023-01-23T02:53:13.281Z,1023.71
2023-01-23T02:54:12.516Z,1023.68
2023-01-23T02:55:12.531Z,1023.72
2023-01-23T02:56:12.512Z,1023.74
2023-01-23T02:57:13.783Z,1023.79
2023-01-23T02:58:13.715Z,1023.78
2023-01-23T02:59:12.870Z,1023.78
2023-01-23T03:00:12.133Z,1023.73
2023-01-23T03:01:13.520Z,1023.72
2023-01-23T03:02:13.760Z,1023.69
2023-01-23T03:03:13.016Z,1023.69
2023-01-23T03:04:13.288Z,1023.67
2023-01-23T03:05:12.583Z,1023.7
2023-01-23T03:06:13.865Z,1023.71
2023-01-23T03:07:13.143Z,1023.71
2023-01-23T03:08:13.572Z,1023.68
2023-01-23T03:09:13.917Z,1023.67
2023-01-23T03:10:13.347Z,1023.7
2023-01-23T03:11:12.678Z,1023.68
2023-01-23T03:12:12.794Z,1023.7
2023-01-23T03:13:12.767Z,1023.69
2023-01-23T03:14:12.515Z,1023.72
2023-01-23T03:15:12.782Z,1023.76
2023-01-23T03:16:12.636Z,1023.78
2023-01-23T03:17:12.881Z,1023.8
2023-01-23T03:18:12.624Z,1023.78
2023-01-23T03:19:12.891Z,1023.77
2023-01-23T03:20:12.709Z,1023.82
2023-01-23T03:21:12.989Z,1023.77
2023-01-23T03:22:12.691Z,1023.85
2023-01-23T03:23:12.940Z,1023.83
2023-01-23T03:24:12.759Z,1023.83
2023-01-23T03:25:12.603Z,1023.82
2023-01-23T03:26:12.500Z,1023.82
2023-01-23T03:27:12.534Z,1023.84
2023-01-23T03:28:12.725Z,1023.84
2023-01-23T03:29:12.509Z,1023.87
2023-01-23T03:30:12.533Z,1023.82
2023-01-23T03:31:12.552Z,1023.81
2023-01-23T03:32:12.527Z,1023.84
2023-01-23T03:33:12.728Z,1023.79
2023-01-23T03:34:12.575Z,1023.8
2023-01-23T03:35:12.545Z,1023.75
2023-01-23T03:36:15.518Z,1023.77
2023-01-23T03:37:12.730Z,1023.75
2023-01-23T03:38:12.759Z,1023.79
2023-01-23T03:39:12.728Z,1023.79
2023-01-23T03:40:12.553Z,1023.81
2023-01-23T03:41:12.596Z,1023.82
2023-01-23T03:42:12.558Z,1023.81
2023-01-23T03:43:12.611Z,1023.82
2023-01-23T03:44:12.530Z,1023.86
2023-01-23T03:45:12.555Z,1023.82
2023-01-23T03:46:12.648Z,1023.82
2023-01-23T03:47:12.579Z,1023.82
2023-01-23T03:48:12.717Z,1023.83
2023-01-23T03:49:12.507Z,1023.82
2023-01-23T03:50:12.925Z,1023.8
2023-01-23T03:51:12.527Z,1023.83
2023-01-23T03:52:12.641Z,1023.8
2023-01-23T03:53:12.858Z,1023.85
2023-01-23T03:54:13.075Z,1023.83
2023-01-23T03:55:12.717Z,1023.83
2023-01-23T03:56:12.777Z,1023.8
2023-01-23T03:57:12.729Z,1023.84
2023-01-23T03:58:12.526Z,1023.88
2023-01-23T03:59:12.550Z,1023.83
2023-01-23T04:00:12.513Z,1023.79
2023-01-23T04:01:12.721Z,1023.84
2023-01-23T04:02:12.523Z,1023.82
2023-01-23T04:03:12.546Z,1023.79
2023-01-23T04:04:12.687Z,1023.78
2023-01-23T04:05:12.515Z,1023.79
2023-01-23T04:06:12.532Z,1023.76
2023-01-23T04:07:12.504Z,1023.69
2023-01-23T04:08:12.531Z,1023.69
2023-01-23T04:09:12.507Z,1023.71
2023-01-23T04:10:15.521Z,1023.66
2023-01-23T04:11:12.509Z,1023.66
2023-01-23T04:12:12.512Z,1023.63
2023-01-23T04:13:12.566Z,1023.59
2023-01-23T04:14:12.523Z,1023.61
2023-01-23T04:15:12.556Z,1023.61
2023-01-23T04:16:12.621Z,1023.6
2023-01-23T04:17:12.542Z,1023.62
2023-01-23T04:18:12.513Z,1023.6
2023-01-23T04:19:12.511Z,1023.65
2023-01-23T04:20:12.534Z,1023.6
2023-01-23T04:21:12.517Z,1023.65
2023-01-23T04:22:12.557Z,1023.64
2023-01-23T04:23:12.506Z,1023.61
2023-01-23T04:24:12.519Z,1023.6
2023-01-23T04:25:12.514Z,1023.59
2023-01-23T04:26:12.515Z,1023.59
2023-01-23T04:27:12.536Z,1023.62
2023-01-23T04:28:12.549Z,1023.6
2023-01-23T04:29:12.516Z,1023.64
2023-01-23T04:30:12.518Z,1023.61
2023-01-23T04:31:12.660Z,1023.62
2023-01-23T04:32:12.565Z,1023.6
2023-01-23T04:33:12.547Z,1023.63
2023-01-23T04:34:12.524Z,1023.61
2023-01-23T04:35:12.510Z,1023.65
2023-01-23T04:36:12.503Z,1023.65
2023-01-23T04:37:12.531Z,1023.69
2023-01-23T04:38:12.531Z,1023.68
2023-01-23T04:39:12.511Z,1023.7
2023-01-23T04:40:12.565Z,1023.69
2023-01-23T04:41:12.510Z,1023.71
2023-01-23T04:42:12.512Z,1023.72
2023-01-23T04:43:12.514Z,1023.68
2023-01-23T04:44:12.506Z,1023.74
2023-01-23T04:45:12.533Z,1023.72
2023-01-23T04:46:12.540Z,1023.73
2023-01-23T04:47:12.680Z,1023.73
2023-01-23T04:48:12.523Z,1023.75
2023-01-23T04:49:12.514Z,1023.76
2023-01-23T04:50:12.531Z,1023.72
2023-01-23T04:51:12.535Z,1023.76
2023-01-23T04:52:12.516Z,1023.73
2023-01-23T04:53:12.509Z,1023.72
2023-01-23T04:54:12.531Z,1023.74
2023-01-23T04:55:12.523Z,1023.7
2023-01-23T04:56:12.514Z,1023.69
2023-01-23T04:57:12.513Z,1023.7
2023-01-23T04:58:12.509Z,1023.72
2023-01-23T04:59:12.504Z,1023.71
2023-01-23T05:00:13.859Z,1023.68
2023-01-23T05:01:14.134Z,1023.72
2023-01-23T05:02:12.566Z,1023.72
2023-01-23T05:03:12.791Z,1023.71
2023-01-23T05:04:12.926Z,1023.73
2023-01-23T05:05:14.219Z,1023.72
2023-01-23T05:06:13.412Z,1023.71
2023-01-23T05:07:13.687Z,1023.68
2023-01-23T05:08:13.974Z,1023.74
2023-01-23T05:09:12.515Z,1023.71
2023-01-23T05:10:12.625Z,1023.71
2023-01-23T05:11:12.584Z,1023.68
2023-01-23T05:12:12.781Z,1023.71
2023-01-23T05:13:12.512Z,1023.67
2023-01-23T05:14:12.719Z,1023.72
2023-01-23T05:15:12.525Z,1023.75
2023-01-23T05:16:12.650Z,1023.79
2023-01-23T05:17:12.522Z,1023.81
2023-01-23T05:18:12.516Z,1023.81
2023-01-23T05:19:12.526Z,1023.83
2023-01-23T05:20:12.513Z,1023.83
2023-01-23T05:21:12.513Z,1023.89
2023-01-23T05:22:12.522Z,1023.86
2023-01-23T05:23:12.530Z,1023.91
2023-01-23T05:24:12.519Z,1023.89
2023-01-23T05:25:12.507Z,1023.89
2023-01-23T05:26:12.531Z,1023.89
2023-01-23T05:27:12.534Z,1023.88
2023-01-23T05:28:15.874Z,1023.87
2023-01-23T05:29:12.596Z,1023.85
2023-01-23T05:30:12.514Z,1023.86
2023-01-23T05:31:12.589Z,1023.85
2023-01-23T05:32:12.537Z,1023.86
2023-01-23T05:33:12.515Z,1023.85
2023-01-23T05:34:12.515Z,1023.87
2023-01-23T05:35:12.509Z,1023.88
2023-01-23T05:36:12.510Z,1023.87
2023-01-23T05:37:12.533Z,1023.91
2023-01-23T05:38:12.524Z,1023.9
2023-01-23T05:39:12.546Z,1023.89
2023-01-23T05:40:12.508Z,1023.92
2023-01-23T05:41:12.507Z,1023.92
2023-01-23T05:42:12.591Z,1023.9
2023-01-23T05:43:12.515Z,1023.91
2023-01-23T05:44:12.585Z,1023.86
2023-01-23T05:45:12.526Z,1023.92
2023-01-23T05:46:12.547Z,1023.92
2023-01-23T05:47:12.532Z,1023.9
2023-01-23T05:48:12.526Z,1023.89
2023-01-23T05:49:12.517Z,1023.95
2023-01-23T05:50:12.515Z,1023.93
2023-01-23T05:51:12.581Z,1023.92
2023-01-23T05:52:12.539Z,1023.95
2023-01-23T05:53:12.604Z,1023.94
2023-01-23T05:54:12.520Z,1024.02
2023-01-23T05:55:12.528Z,1024.02
2023-01-23T05:56:12.525Z,1024.04
2023-01-23T05:57:12.523Z,1023.99
2023-01-23T05:58:14.471Z,1024
2023-01-23T05:59:12.530Z,1024.04
2023-01-23T06:00:12.509Z,1024.02
2023-01-23T06:01:12.522Z,1024.02
2023-01-23T06:02:12.557Z,1024.03
2023-01-23T06:03:12.512Z,1024.02
2023-01-23T06:04:12.510Z,1024.05
2023-01-23T06:05:12.506Z,1024.08
2023-01-23T06:06:12.506Z,1024.08
2023-01-23T06:07:12.547Z,1024.06
2023-01-23T06:08:12.617Z,1024.1
2023-01-23T06:09:12.511Z,1024.08
2023-01-23T06:10:12.514Z,1024.1
2023-01-23T06:11:12.622Z,1024.14
2023-01-23T06:12:12.601Z,1024.14
2023-01-23T06:13:12.825Z,1024.13
2023-01-23T06:14:12.582Z,1024.16
2023-01-23T06:15:12.526Z,1024.17
2023-01-23T06:16:13.732Z,1024.19
2023-01-23T06:17:12.904Z,1024.25
2023-01-23T06:18:12.758Z,1024.23
2023-01-23T06:19:12.511Z,1024.25
2023-01-23T06:20:12.751Z,1024.26
2023-01-23T06:21:12.545Z,1024.31
2023-01-23T06:22:12.765Z,1024.38
2023-01-23T06:23:12.580Z,1024.33
2023-01-23T06:24:12.871Z,1024.32
2023-01-23T06:25:13.098Z,1024.36
2023-01-23T06:26:12.813Z,1024.38
2023-01-23T06:27:12.509Z,1024.41
2023-01-23T06:28:12.515Z,1024.42
2023-01-23T06:29:12.536Z,1024.47
2023-01-23T06:30:12.512Z,1024.45
2023-01-23T06:31:12.624Z,1024.49
2023-01-23T06:32:12.533Z,1024.43
2023-01-23T06:33:12.511Z,1024.45
2023-01-23T06:34:12.509Z,1024.47
2023-01-23T06:35:12.514Z,1024.45
2023-01-23T06:36:12.531Z,1024.43
2023-01-23T06:37:12.518Z,1024.44
2023-01-23T06:38:12.584Z,1024.44
2023-01-23T06:39:12.520Z,1024.44
2023-01-23T06:40:12.508Z,1024.45
2023-01-23T06:41:12.541Z,1024.45
2023-01-23T06:42:12.511Z,1024.46
2023-01-23T06:43:13.589Z,1024.46
2023-01-23T06:44:13.897Z,1024.44
2023-01-23T06:45:12.027Z,1024.47
2023-01-23T06:46:12.398Z,1024.54
2023-01-23T06:47:12.584Z,1024.54
2023-01-23T06:48:12.874Z,1024.55
2023-01-23T06:49:12.147Z,1024.61
2023-01-23T06:50:12.415Z,1024.59
2023-01-23T06:51:12.746Z,1024.63
2023-01-23T06:52:12.960Z,1024.66
2023-01-23T06:53:12.450Z,1024.67
2023-01-23T06:54:12.529Z,1024.68
2023-01-23T06:55:15.793Z,1024.69
2023-01-23T06:56:12.534Z,1024.65
2023-01-23T06:57:12.644Z,1024.71
2023-01-23T06:58:12.863Z,1024.7
2023-01-23T06:59:12.785Z,1024.69
2023-01-23T07:00:12.510Z,1024.7
2023-01-23T07:01:12.535Z,1024.71
2023-01-23T07:02:12.632Z,1024.73
2023-01-23T07:03:12.647Z,1024.77
2023-01-23T07:04:12.523Z,1024.78
2023-01-23T07:05:12.518Z,1024.79
2023-01-23T07:06:12.512Z,1024.79
2023-01-23T07:07:12.535Z,1024.81
2023-01-23T07:08:12.545Z,1024.86
2023-01-23T07:09:12.534Z,1024.88
2023-01-23T07:10:12.501Z,1024.89
2023-01-23T07:11:12.514Z,1024.91
2023-01-23T07:12:12.531Z,1024.9
2023-01-23T07:13:12.530Z,1024.94
2023-01-23T07:14:12.536Z,1024.99
2023-01-23T07:15:12.525Z,1024.99
2023-01-23T07:16:12.572Z,1025
2023-01-23T07:17:12.560Z,1025.03
2023-01-23T07:18:12.514Z,1025.1
2023-01-23T07:19:12.543Z,1025.09
2023-01-23T07:20:12.533Z,1025.11
2023-01-23T07:21:12.649Z,1025.14
2023-01-23T07:22:12.504Z,1025.1
2023-01-23T07:23:12.523Z,1025.1
2023-01-23T07:24:12.530Z,1025.1
2023-01-23T07:25:12.785Z,1025.09
2023-01-23T07:26:12.757Z,1025.09
2023-01-23T07:27:12.576Z,1025.08
2023-01-23T07:28:12.592Z,1025.07
2023-01-23T07:29:12.838Z,1025.02
2023-01-23T07:30:12.509Z,1025.06
2023-01-23T07:31:12.785Z,1025.11
2023-01-23T07:32:13.709Z,1025.11
2023-01-23T07:33:13.013Z,1025.12
2023-01-23T07:34:12.509Z,1025.1
2023-01-23T07:35:12.790Z,1025.1
2023-01-23T07:36:12.848Z,1025.11
2023-01-23T07:37:13.030Z,1025.15
2023-01-23T07:38:12.623Z,1025.1
2023-01-23T07:39:12.507Z,1025.17
2023-01-23T07:40:12.659Z,1025.15
2023-01-23T07:41:12.527Z,1025.18
2023-01-23T07:42:12.703Z,1025.18
2023-01-23T07:43:12.535Z,1025.22
2023-01-23T07:44:12.761Z,1025.22
2023-01-23T07:45:12.640Z,1025.23
2023-01-23T07:46:12.564Z,1025.23
2023-01-23T07:47:12.543Z,1025.24
2023-01-23T07:48:12.645Z,1025.23
2023-01-23T07:49:12.512Z,1025.2
2023-01-23T07:50:12.528Z,1025.24
2023-01-23T07:51:12.541Z,1025.26
2023-01-23T07:52:12.510Z,1025.21
2023-01-23T07:53:12.508Z,1025.22
2023-01-23T07:54:12.515Z,1025.3
2023-01-23T07:55:12.523Z,1025.28
2023-01-23T07:56:12.513Z,1025.29
2023-01-23T07:57:12.509Z,1025.31
2023-01-23T07:58:12.523Z,1025.3
2023-01-23T07:59:12.523Z,1025.31
2023-01-23T08:00:12.510Z,1025.3
2023-01-23T08:01:12.624Z,1025.36
2023-01-23T08:02:12.522Z,1025.36
2023-01-23T08:03:12.517Z,1025.36
2023-01-23T08:04:12.577Z,1025.37
2023-01-23T08:05:12.525Z,1025.41
2023-01-23T08:06:12.511Z,1025.42
2023-01-23T08:07:12.516Z,1025.42
2023-01-23T08:08:15.512Z,1025.44
2023-01-23T08:09:12.510Z,1025.43
2023-01-23T08:10:12.508Z,1025.46
2023-01-23T08:11:12.510Z,1025.45
2023-01-23T08:12:12.624Z,1025.43
2023-01-23T08:13:12.520Z,1025.5
2023-01-23T08:14:12.512Z,1025.5
2023-01-23T08:15:12.565Z,1025.52
2023-01-23T08:16:15.540Z,1025.46
2023-01-23T08:17:12.507Z,1025.49
2023-01-23T08:18:12.502Z,1025.5
2023-01-23T08:19:12.521Z,1025.49
2023-01-23T08:20:12.515Z,1025.5
2023-01-23T08:21:12.502Z,1025.48
2023-01-23T08:22:12.515Z,1025.5
2023-01-23T08:23:12.513Z,1025.52
2023-01-23T08:24:12.566Z,1025.52
2023-01-23T08:25:12.516Z,1025.53
2023-01-23T08:26:12.616Z,1025.54
2023-01-23T08:27:13.524Z,1025.49
2023-01-23T08:28:12.510Z,1025.5
2023-01-23T08:29:12.554Z,1025.51
2023-01-23T08:30:12.536Z,1025.51
2023-01-23T08:31:12.629Z,1025.45
2023-01-23T08:32:12.511Z,1025.49
2023-01-23T08:33:12.508Z,1025.48
2023-01-23T08:34:12.526Z,1025.5
2023-01-23T08:35:12.506Z,1025.46
2023-01-23T08:36:13.780Z,1025.46
2023-01-23T08:37:12.506Z,1025.47
2023-01-23T08:38:12.618Z,1025.43
2023-01-23T08:39:12.546Z,1025.49
2023-01-23T08:40:12.888Z,1025.5
2023-01-23T08:41:12.517Z,1025.5
2023-01-23T08:42:12.811Z,1025.51
2023-01-23T08:43:12.697Z,1025.52
2023-01-23T08:44:12.536Z,1025.49
2023-01-23T08:45:12.650Z,1025.52
2023-01-23T08:46:12.542Z,1025.53
2023-01-23T08:47:12.768Z,1025.54
2023-01-23T08:48:12.507Z,1025.54
2023-01-23T08:49:13.784Z,1025.53
2023-01-23T08:50:12.510Z,1025.54
2023-01-23T08:51:12.588Z,1025.53
2023-01-23T08:52:12.514Z,1025.55
2023-01-23T08:53:12.528Z,1025.53
2023-01-23T08:54:12.527Z,1025.51
2023-01-23T08:55:12.553Z,1025.53
2023-01-23T08:56:13.885Z,1025.54
2023-01-23T08:57:12.521Z,1025.55
2023-01-23T08:58:12.531Z,1025.5
2023-01-23T08:59:12.604Z,1025.54
2023-01-23T09:00:12.534Z,1025.55
2023-01-23T09:01:12.567Z,1025.52
2023-01-23T09:02:12.568Z,1025.48
2023-01-23T09:03:15.508Z,1025.52
2023-01-23T09:04:12.510Z,1025.52
2023-01-23T09:05:12.512Z,1025.55
2023-01-23T09:06:12.539Z,1025.52
2023-01-23T09:07:12.516Z,1025.55
2023-01-23T09:08:12.548Z,1025.55
2023-01-23T09:09:12.508Z,1025.56
2023-01-23T09:10:12.505Z,1025.57
2023-01-23T09:11:12.508Z,1025.55
2023-01-23T09:12:12.550Z,1025.59
2023-01-23T09:13:12.525Z,1025.6
2023-01-23T09:14:12.521Z,1025.62
2023-01-23T09:15:12.675Z,1025.64
2023-01-23T09:16:12.557Z,1025.66
2023-01-23T09:17:12.515Z,1025.65
2023-01-23T09:18:12.525Z,1025.64
2023-01-23T09:19:12.539Z,1025.63
2023-01-23T09:20:12.536Z,1025.66
2023-01-23T09:21:12.554Z,1025.63
2023-01-23T09:22:12.517Z,1025.62
2023-01-23T09:23:12.621Z,1025.67
2023-01-23T09:24:12.519Z,1025.66
2023-01-23T09:25:12.506Z,1025.63
2023-01-23T09:26:12.521Z,1025.67
2023-01-23T09:27:12.561Z,1025.65
2023-01-23T09:28:12.524Z,1025.66
2023-01-23T09:29:12.512Z,1025.7
2023-01-23T09:30:12.514Z,1025.7
2023-01-23T09:31:12.515Z,1025.69
2023-01-23T09:32:12.534Z,1025.73
2023-01-23T09:33:12.512Z,1025.71
2023-01-23T09:34:12.512Z,1025.74
2023-01-23T09:35:12.517Z,1025.77
2023-01-23T09:36:12.524Z,1025.77
2023-01-23T09:37:12.526Z,1025.78
2023-01-23T09:38:12.583Z,1025.81
2023-01-23T09:39:12.547Z,1025.84
2023-01-23T09:40:12.528Z,1025.84
2023-01-23T09:41:12.646Z,1025.85
2023-01-23T09:42:12.529Z,1025.9
2023-01-23T09:43:12.544Z,1025.85
2023-01-23T09:44:12.522Z,1025.81
2023-01-23T09:45:12.508Z,1025.81
2023-01-23T09:46:12.598Z,1025.78
2023-01-23T09:47:12.515Z,1025.81
2023-01-23T09:48:12.685Z,1025.82
2023-01-23T09:49:12.956Z,1025.84
2023-01-23T09:50:12.700Z,1025.86
2023-01-23T09:51:12.613Z,1025.92
2023-01-23T09:52:12.881Z,1025.92
2023-01-23T09:53:12.528Z,1025.94
2023-01-23T09:54:12.833Z,1025.97
2023-01-23T09:55:12.648Z,1025.97
2023-01-23T09:56:12.872Z,1025.99
2023-01-23T09:57:12.661Z,1026.03
2023-01-23T09:58:12.527Z,1026.04
2023-01-23T09:59:12.508Z,1026.04
2023-01-23T10:00:12.509Z,1026.02
2023-01-23T10:01:12.771Z,1026
2023-01-23T10:02:13.014Z,1026.02
2023-01-23T10:03:12.515Z,1026.01
2023-01-23T10:04:12.538Z,1026.01
2023-01-23T10:05:12.523Z,1026.01
2023-01-23T10:06:12.551Z,1026.03
2023-01-23T10:07:12.512Z,1026.05
2023-01-23T10:08:12.574Z,1026.02
2023-01-23T10:09:12.521Z,1026.09
2023-01-23T10:10:12.505Z,1026.02
2023-01-23T10:11:12.523Z,1026.04
2023-01-23T10:12:12.849Z,1026.02
2023-01-23T10:13:13.816Z,1026.01
2023-01-23T10:14:12.504Z,1026.01
2023-01-23T10:15:12.506Z,1025.99
2023-01-23T10:16:12.515Z,1026.06
2023-01-23T10:17:12.529Z,1026.1
2023-01-23T10:18:12.504Z,1026.04
2023-01-23T10:19:13.755Z,1026.07
2023-01-23T10:20:12.929Z,1026.11
2023-01-23T10:21:12.174Z,1026.11
2023-01-23T10:22:23.089Z,1026.15
2023-01-23T10:23:12.719Z,1026.16
2023-01-23T10:24:12.986Z,1026.1
2023-01-23T10:25:12.291Z,1026.12
2023-01-23T10:26:12.562Z,1026.12
2023-01-23T10:27:12.828Z,1026.12
2023-01-23T10:28:13.108Z,1026.16
2023-01-23T10:29:12.412Z,1026.11
2023-01-23T10:30:12.673Z,1026.14
2023-01-23T10:31:13.001Z,1026.1
2023-01-23T10:32:12.707Z,1026.12
2023-01-23T10:33:12.539Z,1026.13
2023-01-23T10:34:12.814Z,1026.05
2023-01-23T10:35:12.532Z,1026.02
2023-01-23T10:36:15.162Z,1026.1
2023-01-23T10:37:12.551Z,1026.04
2023-01-23T10:38:12.510Z,1026.01
2023-01-23T10:39:12.541Z,1025.94
2023-01-23T10:40:12.508Z,1025.93
2023-01-23T10:41:12.526Z,1025.92
2023-01-23T10:42:12.509Z,1025.91
2023-01-23T10:43:12.517Z,1025.89
2023-01-23T10:44:12.533Z,1025.89
2023-01-23T10:45:12.519Z,1025.87
2023-01-23T10:46:12.578Z,1025.89
2023-01-23T10:47:12.512Z,1025.85
2023-01-23T10:48:18.786Z,1025.88
2023-01-23T10:49:12.606Z,1025.88
2023-01-23T10:50:12.510Z,1025.88
2023-01-23T10:51:12.544Z,1025.94
2023-01-23T10:52:12.649Z,1025.94
2023-01-23T10:53:12.523Z,1025.93
2023-01-23T10:54:31.143Z,1025.99
2023-01-23T10:55:12.518Z,1025.99
2023-01-23T10:56:12.671Z,1025.99
2023-01-23T10:57:12.528Z,1025.95
2023-01-23T10:58:12.556Z,1025.96
2023-01-23T10:59:12.538Z,1025.98
2023-01-23T11:00:12.781Z,1026
2023-01-23T11:01:12.659Z,1026
2023-01-23T11:02:12.828Z,1025.97
2023-01-23T11:03:12.680Z,1026.01
2023-01-23T11:04:12.889Z,1026.02
2023-01-23T11:05:12.746Z,1026.02
2023-01-23T11:06:12.826Z,1026.05
2023-01-23T11:07:16.397Z,1025.98
2023-01-23T11:08:12.588Z,1025.89
2023-01-23T11:09:13.040Z,1025.92
2023-01-23T11:10:12.875Z,1025.88
2023-01-23T11:11:13.154Z,1025.87
2023-01-23T11:12:12.704Z,1025.84
2023-01-23T11:13:12.547Z,1025.85
2023-01-23T11:14:12.760Z,1025.82
2023-01-23T11:15:12.541Z,1025.87
2023-01-23T11:16:12.762Z,1025.86
2023-01-23T11:17:12.597Z,1025.81
2023-01-23T11:18:12.883Z,1025.79
2023-01-23T11:19:12.520Z,1025.79
2023-01-23T11:20:12.511Z,1025.77
2023-01-23T11:21:12.521Z,1025.76
2023-01-23T11:22:12.536Z,1025.71
2023-01-23T11:23:12.507Z,1025.74
2023-01-23T11:24:12.511Z,1025.76
2023-01-23T11:25:12.503Z,1025.74
2023-01-23T11:26:12.523Z,1025.72
2023-01-23T11:27:12.541Z,1025.73
2023-01-23T11:28:12.512Z,1025.81
2023-01-23T11:29:12.518Z,1025.74
2023-01-23T11:30:12.544Z,1025.71
2023-01-23T11:31:19.221Z,1025.72
2023-01-23T11:32:12.677Z,1025.71
2023-01-23T11:33:12.516Z,1025.73
2023-01-23T11:34:12.510Z,1025.75
2023-01-23T11:35:12.515Z,1025.74
2023-01-23T11:36:12.506Z,1025.75
2023-01-23T11:37:12.530Z,1025.74
2023-01-23T11:38:12.515Z,1025.67
2023-01-23T11:39:12.513Z,1025.66
2023-01-23T11:40:12.519Z,1025.64
2023-01-23T11:41:12.513Z,1025.65
2023-01-23T11:42:12.519Z,1025.63
2023-01-23T11:43:12.521Z,1025.6
2023-01-23T11:44:21.058Z,1025.6
2023-01-23T11:45:12.823Z,1025.58
2023-01-23T11:46:12.830Z,1025.57
2023-01-23T11:47:12.814Z,1025.53
2023-01-23T11:48:12.762Z,1025.53
2023-01-23T11:49:12.753Z,1025.54
2023-01-23T11:50:12.706Z,1025.48
2023-01-23T11:51:12.647Z,1025.49
2023-01-23T11:52:12.528Z,1025.45
2023-01-23T11:53:12.554Z,1025.54
2023-01-23T11:54:12.559Z,1025.53
2023-01-23T11:55:12.511Z,1025.52
2023-01-23T11:56:12.505Z,1025.49
2023-01-23T11:57:12.523Z,1025.51
2023-01-23T11:58:12.506Z,1025.57
2023-01-23T11:59:12.526Z,1025.55
2023-01-23T12:00:12.521Z,1025.54
2023-01-23T12:01:12.508Z,1025.55
2023-01-23T12:02:12.608Z,1025.57
2023-01-23T12:03:12.628Z,1025.57
2023-01-23T12:04:12.589Z,1025.62
2023-01-23T12:05:12.604Z,1025.57
2023-01-23T12:06:21.714Z,1025.61
2023-01-23T12:07:12.523Z,1025.6
2023-01-23T12:08:12.519Z,1025.59